createdAt,value
2017-09-10T00:02:26.974Z,98716.15
2017-09-10T00:04:53.499Z,98716.80
2017-09-10T00:07:20.053Z,98711.36
2017-09-10T00:09:46.382Z,98712.41
2017-09-10T00:12:12.628Z,98711.37
2017-09-10T00:14:39.144Z,98713.39
2017-09-10T00:17:05.382Z,98710.36
2017-09-10T00:19:31.723Z,98706.63
2017-09-10T00:21:58.160Z,98708.66
2017-09-10T00:24:24.568Z,98702.91
2017-09-10T00:26:50.897Z,98711.42
2017-09-10T00:29:17.115Z,98713.77
2017-09-10T00:31:43.470Z,98708.62
2017-09-10T00:34:10.126Z,98720.61
2017-09-10T00:36:36.550Z,98711.84
2017-09-10T00:39:03.180Z,98711.00
2017-09-10T00:41:29.424Z,98717.50
2017-09-10T00:43:55.762Z,98718.82
2017-09-10T00:46:22.416Z,98726.75
2017-09-10T00:48:48.644Z,98711.75
2017-09-10T00:51:15.469Z,98714.34
2017-09-10T00:53:43.188Z,98716.38
2017-09-10T00:56:09.558Z,98711.33
2017-09-10T00:58:35.946Z,98711.33
2017-09-10T01:01:02.225Z,98711.33
2017-09-10T01:03:28.548Z,98715.20
2017-09-10T01:05:54.992Z,98715.31
2017-09-10T01:08:21.928Z,98719.83
2017-09-10T01:10:48.164Z,98718.41
2017-09-10T01:13:14.385Z,98720.52
2017-09-10T01:15:40.739Z,98715.63
2017-09-10T01:18:07.667Z,98715.35
2017-09-10T01:20:34.101Z,98717.53
2017-09-10T01:23:00.443Z,98722.79
2017-09-10T01:25:26.782Z,98717.38
2017-09-10T01:27:53.629Z,98719.46
2017-09-10T01:30:19.949Z,98719.46
2017-09-10T01:32:46.278Z,98718.77
2017-09-10T01:35:12.619Z,98718.32
2017-09-10T01:37:39.036Z,98723.11
2017-09-10T01:40:06.621Z,98713.87
2017-09-10T01:42:32.930Z,98711.88
2017-09-10T01:44:59.276Z,98715.61
2017-09-10T01:47:25.595Z,98722.73
2017-09-10T01:49:52.540Z,98714.92
2017-09-10T01:52:18.890Z,98715.73
2017-09-10T01:54:45.716Z,98719.86
2017-09-10T01:57:12.053Z,98722.08
2017-09-10T01:59:38.820Z,98724.33
2017-09-10T02:02:05.142Z,98728.01
2017-09-10T02:04:31.482Z,98726.59
2017-09-10T02:06:57.908Z,98722.33
2017-09-10T02:09:24.234Z,98726.45
2017-09-10T02:11:50.552Z,98724.49
2017-09-10T02:14:16.794Z,98731.46
2017-09-10T02:16:43.333Z,98723.66
2017-09-10T02:19:09.664Z,98729.41
2017-09-10T02:21:35.896Z,98723.44
2017-09-10T02:24:02.223Z,98725.05
2017-09-10T02:26:28.549Z,98736.16
2017-09-10T02:28:55.616Z,98722.56
2017-09-10T02:31:21.929Z,98729.39
2017-09-10T02:33:48.472Z,98729.88
2017-09-10T02:36:15.524Z,98725.55
2017-09-10T02:38:41.972Z,98731.95
2017-09-10T02:41:08.405Z,98730.89
2017-09-10T02:43:35.534Z,98728.09
2017-09-10T02:46:01.891Z,98730.17
2017-09-10T02:48:28.813Z,98731.30
2017-09-10T02:50:55.880Z,98733.65
2017-09-10T02:53:22.196Z,98736.64
2017-09-10T02:55:48.642Z,98743.41
2017-09-10T02:58:15.174Z,98739.94
2017-09-10T03:00:41.816Z,98739.43
2017-09-10T03:03:08.159Z,98739.43
2017-09-10T03:05:34.475Z,98736.49
2017-09-10T03:08:00.713Z,98743.94
2017-09-10T03:10:27.766Z,98744.01
2017-09-10T03:12:54.306Z,98751.83
2017-09-10T03:15:20.723Z,98754.62
2017-09-10T03:17:47.068Z,98753.14
2017-09-10T03:20:13.502Z,98755.59
2017-09-10T03:22:39.815Z,98758.78
2017-09-10T03:25:06.161Z,98763.81
2017-09-10T03:27:32.597Z,98757.38
2017-09-10T03:29:58.937Z,98766.02
2017-09-10T03:32:25.565Z,98767.34
2017-09-10T03:34:51.897Z,98760.90
2017-09-10T03:37:18.234Z,98758.86
2017-09-10T03:39:44.463Z,98765.53
2017-09-10T03:42:10.798Z,98759.22
2017-09-10T03:44:37.222Z,98760.83
2017-09-10T03:47:03.660Z,98756.84
2017-09-10T03:49:29.993Z,98760.75
2017-09-10T03:51:57.338Z,98761.98
2017-09-10T03:54:23.675Z,98757.80
2017-09-10T03:56:50.003Z,98762.34
2017-09-10T03:59:16.335Z,98762.84
2017-09-10T04:01:42.875Z,98766.95
2017-09-10T04:04:09.205Z,98769.45
2017-09-10T04:06:36.043Z,98770.80
2017-09-10T04:09:02.484Z,98777.75
2017-09-10T04:11:29.345Z,98774.34
2017-09-10T04:13:56.089Z,98774.47
2017-09-10T04:16:22.517Z,98782.05
2017-09-10T04:18:48.959Z,98783.64
2017-09-10T04:21:15.395Z,98780.17
2017-09-10T04:23:41.812Z,98780.22
2017-09-10T04:26:08.159Z,98774.69
2017-09-10T04:28:35.309Z,98781.48
2017-09-10T04:31:01.646Z,98783.37
2017-09-10T04:33:28.069Z,98780.63
2017-09-10T04:35:55.541Z,98784.66
2017-09-10T04:38:21.891Z,98790.57
2017-09-10T04:40:48.194Z,98786.06
2017-09-10T04:43:14.725Z,98783.60
2017-09-10T04:45:41.055Z,98789.11
2017-09-10T04:48:07.390Z,98786.52
2017-09-10T04:50:34.654Z,98788.55
2017-09-10T04:53:00.866Z,98786.67
2017-09-10T04:55:27.203Z,98791.55
2017-09-10T04:57:53.542Z,98786.89
2017-09-10T05:00:19.946Z,98786.07
2017-09-10T05:02:46.178Z,98798.66
2017-09-10T05:05:12.731Z,98795.81
2017-09-10T05:07:39.174Z,98792.06
2017-09-10T05:10:05.607Z,98794.68
2017-09-10T05:12:32.762Z,98796.02
2017-09-10T05:14:59.306Z,98794.82
2017-09-10T05:17:25.737Z,98795.72
2017-09-10T05:19:52.270Z,98794.95
2017-09-10T05:22:18.930Z,98790.69
2017-09-10T05:24:45.659Z,98784.59
2017-09-10T05:27:11.969Z,98798.36
2017-09-10T05:29:38.322Z,98796.16
2017-09-10T05:32:04.959Z,98789.63
2017-09-10T05:34:31.290Z,98794.20
2017-09-10T05:36:57.828Z,98795.59
2017-09-10T05:39:24.144Z,98792.47
2017-09-10T05:41:50.597Z,98801.70
2017-09-10T05:44:16.929Z,98798.33
2017-09-10T05:46:43.257Z,98794.39
2017-09-10T05:49:09.998Z,98799.77
2017-09-10T05:51:36.218Z,98798.83
2017-09-10T05:54:02.765Z,98800.82
2017-09-10T05:56:29.086Z,98802.43
2017-09-10T05:58:55.424Z,98799.20
2017-09-10T06:01:21.888Z,98801.36
2017-09-10T06:03:48.809Z,98805.09
2017-09-10T06:06:16.055Z,98804.81
2017-09-10T06:08:42.497Z,98805.45
2017-09-10T06:11:09.438Z,98809.33
2017-09-10T06:13:36.479Z,98807.89
2017-09-10T06:16:03.022Z,98806.69
2017-09-10T06:18:29.473Z,98809.59
2017-09-10T06:20:55.786Z,98804.83
2017-09-10T06:23:22.138Z,98796.98
2017-09-10T06:25:50.525Z,98803.33
2017-09-10T06:28:16.946Z,98801.22
2017-09-10T06:30:43.282Z,98798.79
2017-09-10T06:39:53.604Z,98795.54
2017-09-10T06:42:20.079Z,98795.72
2017-09-10T06:44:46.669Z,98796.23
2017-09-10T06:47:15.351Z,98799.93
2017-09-10T06:49:41.882Z,98802.88
2017-09-10T06:52:08.197Z,98803.03
2017-09-10T06:54:34.902Z,98807.36
2017-09-10T06:57:01.799Z,98798.84
2017-09-10T06:59:29.384Z,98804.80
2017-09-10T07:05:12.425Z,98799.80
2017-09-10T07:07:40.781Z,98797.69
2017-09-10T07:10:07.131Z,98801.27
2017-09-10T07:12:33.453Z,98796.59
2017-09-10T07:15:00.090Z,98799.69
2017-09-10T07:17:28.269Z,98798.77
2017-09-10T07:19:54.587Z,98796.86
2017-09-10T07:22:20.911Z,98804.11
2017-09-10T07:24:47.660Z,98801.42
2017-09-10T07:27:13.904Z,98800.45
2017-09-10T07:29:40.223Z,98807.00
2017-09-10T07:32:06.656Z,98802.27
2017-09-10T07:34:36.059Z,98799.08
2017-09-10T07:37:02.397Z,98790.48
2017-09-10T07:39:29.236Z,98789.33
2017-09-10T07:41:55.464Z,98789.63
2017-09-10T07:44:22.516Z,98782.58
2017-09-10T07:46:49.350Z,98779.13
2017-09-10T07:49:15.583Z,98785.38
2017-09-10T07:51:42.233Z,98772.27
2017-09-10T07:54:08.761Z,98776.00
2017-09-10T07:56:35.294Z,98772.84
2017-09-10T07:59:02.780Z,98769.43
2017-09-10T08:01:29.396Z,98769.12
2017-09-10T08:03:55.845Z,98767.34
2017-09-10T08:06:23.193Z,98764.95
2017-09-10T08:08:49.627Z,98760.97
2017-09-10T08:11:16.168Z,98760.26
2017-09-10T08:13:42.603Z,98758.13
2017-09-10T08:16:09.946Z,98763.45
2017-09-10T08:18:36.182Z,98760.45
2017-09-10T08:21:02.534Z,98761.69
2017-09-10T08:23:28.741Z,98765.41
2017-09-10T08:25:55.050Z,98764.73
2017-09-10T08:28:21.317Z,98759.69
2017-09-10T08:30:47.948Z,98766.56
2017-09-10T08:33:14.159Z,98760.63
2017-09-10T08:35:40.395Z,98749.92
2017-09-10T08:38:06.742Z,98757.08
2017-09-10T08:40:32.966Z,98755.59
2017-09-10T08:42:59.676Z,98756.91
2017-09-10T08:45:28.096Z,98752.54
2017-09-10T08:47:54.406Z,98751.34
2017-09-10T08:50:20.688Z,98754.37
2017-09-10T08:52:46.993Z,98748.55
2017-09-10T08:55:14.527Z,98750.41
2017-09-10T08:57:41.187Z,98750.30
2017-09-10T09:00:07.466Z,98744.41
2017-09-10T09:02:33.730Z,98743.34
2017-09-10T09:05:00.057Z,98749.36
2017-09-10T09:07:26.385Z,98746.19
2017-09-10T09:09:53.560Z,98744.83
2017-09-10T09:12:19.875Z,98743.62
2017-09-10T09:14:46.761Z,98747.88
2017-09-10T09:17:13.022Z,98747.47
2017-09-10T09:19:40.722Z,98747.92
2017-09-10T09:22:07.697Z,98750.58
2017-09-10T09:24:34.331Z,98754.26
2017-09-10T09:27:01.612Z,98749.88
2017-09-10T09:29:29.095Z,98754.39
2017-09-10T09:31:55.614Z,98750.78
2017-09-10T09:34:23.754Z,98747.98
2017-09-10T09:36:50.034Z,98746.05
2017-09-10T09:39:17.131Z,98734.44
2017-09-10T09:41:43.416Z,98736.20
2017-09-10T09:44:09.642Z,98730.89
2017-09-10T09:46:35.934Z,98733.40
2017-09-10T09:49:03.584Z,98737.70
2017-09-10T09:51:31.399Z,98736.34
2017-09-10T09:53:57.594Z,98729.60
2017-09-10T09:56:24.102Z,98725.98
2017-09-10T09:58:50.383Z,98721.92
2017-09-10T10:01:16.671Z,98722.08
2017-09-10T10:03:42.944Z,98719.06
2017-09-10T10:06:09.150Z,98728.36
2017-09-10T10:08:35.373Z,98715.20
2017-09-10T10:11:01.593Z,98724.31
2017-09-10T10:13:29.250Z,98716.76
2017-09-10T10:15:55.945Z,98710.41
2017-09-10T10:18:23.097Z,98702.89
2017-09-10T10:20:49.883Z,98707.78
2017-09-10T10:23:16.190Z,98711.27
2017-09-10T10:25:42.415Z,98700.91
2017-09-10T10:28:08.614Z,98696.49
2017-09-10T10:30:35.208Z,98699.09
2017-09-10T10:33:02.426Z,98702.69
2017-09-10T10:35:29.524Z,98699.22
2017-09-10T10:37:56.128Z,98701.92
2017-09-10T10:40:23.007Z,98695.41
2017-09-10T10:42:49.252Z,98696.85
2017-09-10T10:45:15.524Z,98687.85
2017-09-10T10:47:42.695Z,98688.03
2017-09-10T10:50:09.672Z,98685.55
2017-09-10T10:52:37.635Z,98683.56
2017-09-10T10:55:04.249Z,98691.92
2017-09-10T10:57:30.671Z,98693.45
2017-09-10T10:59:57.645Z,98683.16
2017-09-10T11:02:23.922Z,98673.41
2017-09-10T11:04:50.213Z,98687.89
2017-09-10T11:07:16.578Z,98677.89
2017-09-10T11:09:42.921Z,98675.28
2017-09-10T11:12:11.865Z,98670.93
2017-09-10T11:14:39.303Z,98668.18
2017-09-10T11:17:05.575Z,98664.95
2017-09-10T11:19:33.086Z,98665.10
2017-09-10T11:21:59.770Z,98660.94
2017-09-10T11:24:26.293Z,98655.63
2017-09-10T11:26:52.926Z,98648.97
2017-09-10T11:29:19.188Z,98649.45
2017-09-10T11:31:46.146Z,98646.42
2017-09-10T11:34:12.549Z,98644.37
2017-09-10T11:36:39.066Z,98641.22
2017-09-10T11:39:05.330Z,98638.06
2017-09-10T11:41:32.206Z,98642.09
2017-09-10T11:43:58.535Z,98638.52
2017-09-10T11:46:24.787Z,98642.06
2017-09-10T11:48:51.123Z,98642.97
2017-09-10T11:51:18.092Z,98646.88
2017-09-10T11:53:44.405Z,98645.03
2017-09-10T11:56:11.008Z,98643.21
2017-09-10T11:58:37.247Z,98633.98
2017-09-10T12:01:03.845Z,98638.53
2017-09-10T12:03:30.136Z,98629.98
2017-09-10T12:05:58.159Z,98635.91
2017-09-10T12:08:25.399Z,98628.91
2017-09-10T12:10:51.643Z,98631.09
2017-09-10T12:13:17.919Z,98628.48
2017-09-10T12:15:44.114Z,98618.97
2017-09-10T12:18:10.363Z,98610.30
2017-09-10T12:20:36.603Z,98614.37
2017-09-10T12:23:03.309Z,98615.95
2017-09-10T12:25:30.054Z,98609.30
2017-09-10T12:27:56.373Z,98601.11
2017-09-10T12:30:22.644Z,98605.69
2017-09-10T12:32:50.904Z,98603.63
2017-09-10T12:35:17.206Z,98607.35
2017-09-10T12:37:43.371Z,98593.92
2017-09-10T12:40:10.075Z,98593.79
2017-09-10T12:42:36.380Z,98582.28
2017-09-10T12:45:03.092Z,98582.91
2017-09-10T12:47:29.563Z,98583.30
2017-09-10T12:49:55.913Z,98587.82
2017-09-10T12:52:23.486Z,98587.73
2017-09-10T12:54:49.660Z,98579.05
2017-09-10T12:57:15.942Z,98581.41
2017-09-10T12:59:42.180Z,98584.52
2017-09-10T13:02:08.927Z,98587.87
2017-09-10T13:04:35.956Z,98585.37
2017-09-10T13:07:02.171Z,98587.59
2017-09-10T13:09:29.222Z,98591.23
2017-09-10T13:11:55.447Z,98587.41
2017-09-10T13:14:22.635Z,98592.38
2017-09-10T13:16:49.776Z,98578.48
2017-09-10T13:19:16.611Z,98572.20
2017-09-10T13:21:42.876Z,98572.57
2017-09-10T13:24:09.088Z,98574.63
2017-09-10T13:26:35.411Z,98576.01
2017-09-10T13:29:01.670Z,98572.47
2017-09-10T13:31:28.458Z,98569.56
2017-09-10T13:33:54.703Z,98571.75
2017-09-10T13:36:22.005Z,98569.13
2017-09-10T13:38:48.918Z,98567.50
2017-09-10T13:41:15.183Z,98571.38
2017-09-10T13:43:41.444Z,98574.28
2017-09-10T13:46:07.672Z,98571.92
2017-09-10T13:48:33.993Z,98583.20
2017-09-10T13:51:00.226Z,98578.20
2017-09-10T13:53:26.543Z,98579.86
2017-09-10T13:55:52.789Z,98569.28
2017-09-10T13:58:19.089Z,98573.98
2017-09-10T14:00:45.329Z,98580.48
2017-09-10T14:03:11.543Z,98576.17
2017-09-10T14:05:37.803Z,98568.16
2017-09-10T14:08:04.363Z,98574.52
2017-09-10T14:10:30.607Z,98570.95
2017-09-10T14:12:56.891Z,98569.16
2017-09-10T14:15:23.565Z,98566.59
2017-09-10T14:17:50.970Z,98572.09
2017-09-10T14:20:17.171Z,98569.80
2017-09-10T14:22:43.462Z,98568.87
2017-09-10T14:25:10.132Z,98571.00
2017-09-10T14:27:36.462Z,98567.79
2017-09-10T14:30:02.992Z,98565.83
2017-09-10T14:32:29.542Z,98566.39
2017-09-10T14:34:56.277Z,98565.39
2017-09-10T14:40:01.752Z,98566.86
2017-09-10T14:42:28.113Z,98564.97
2017-09-10T14:44:54.509Z,98559.95
2017-09-10T14:47:21.155Z,98562.38
2017-09-10T14:49:47.443Z,98564.50
2017-09-10T14:52:14.642Z,98570.54
2017-09-10T14:54:40.882Z,98569.86
2017-09-10T14:57:07.112Z,98568.56
2017-09-10T14:59:34.958Z,98566.52
2017-09-10T15:02:02.429Z,98566.88
2017-09-10T15:04:31.404Z,98567.61
2017-09-10T15:06:58.250Z,98570.96
2017-09-10T15:09:25.112Z,98572.34
2017-09-10T15:11:51.425Z,98576.80
2017-09-10T15:14:17.777Z,98583.33
2017-09-10T15:16:44.107Z,98582.78
2017-09-10T15:19:10.444Z,98581.89
2017-09-10T15:21:37.277Z,98578.80
2017-09-10T15:24:03.825Z,98572.28
2017-09-10T15:26:30.969Z,98571.91
2017-09-10T15:28:57.242Z,98571.48
2017-09-10T15:31:25.562Z,98567.98
2017-09-10T15:33:52.323Z,98559.34
2017-09-10T15:36:18.662Z,98555.22
2017-09-10T15:38:45.067Z,98553.67
2017-09-10T15:41:11.622Z,98564.75
2017-09-10T15:43:38.265Z,98563.80
2017-09-10T15:46:12.781Z,98569.38
2017-09-10T15:51:18.463Z,98567.53
2017-09-10T15:53:45.110Z,98569.23
2017-09-10T15:56:12.240Z,98568.80
2017-09-10T15:58:38.793Z,98576.53
2017-09-10T16:01:05.406Z,98577.53
2017-09-10T16:03:31.624Z,98586.32
2017-09-10T16:05:58.429Z,98585.58
2017-09-10T16:08:24.810Z,98589.22
2017-09-10T16:10:52.399Z,98593.19
2017-09-10T16:13:19.318Z,98593.15
2017-09-10T16:15:45.669Z,98594.69
2017-09-10T16:18:14.731Z,98590.25
2017-09-10T16:20:42.022Z,98592.13
2017-09-10T16:23:08.657Z,98594.95
2017-09-10T16:25:40.815Z,98585.41
2017-09-10T16:28:07.050Z,98593.89
2017-09-10T16:30:40.660Z,98594.84
2017-09-10T16:33:08.744Z,98592.42
2017-09-10T16:38:13.487Z,98596.63
2017-09-10T16:40:40.913Z,98591.80
2017-09-10T16:43:12.898Z,98594.69
2017-09-10T16:45:43.734Z,98597.06
2017-09-10T16:53:36.126Z,98609.45
2017-09-10T16:56:06.245Z,98612.33
2017-09-10T16:58:36.974Z,98609.38
2017-09-10T17:09:01.438Z,98633.81
2017-09-10T17:14:17.301Z,98642.16
2017-09-10T17:16:45.917Z,98643.18
2017-09-10T17:19:14.401Z,98647.56
2017-09-10T17:21:41.654Z,98655.91
2017-09-10T17:24:18.094Z,98652.37
2017-09-10T17:26:44.357Z,98655.11
2017-09-10T17:29:22.459Z,98659.60
2017-09-10T17:31:48.774Z,98664.58
2017-09-10T17:34:15.378Z,98664.05
2017-09-10T17:36:42.088Z,98665.69
2017-09-10T17:39:09.843Z,98666.11
2017-09-10T17:41:37.410Z,98672.60
2017-09-10T17:44:05.701Z,98667.67
2017-09-10T17:46:33.228Z,98682.20
2017-09-10T17:48:59.532Z,98678.84
2017-09-10T17:51:26.007Z,98680.61
2017-09-10T17:53:52.345Z,98690.17
2017-09-10T17:56:18.996Z,98690.87
2017-09-10T17:58:45.726Z,98697.69
2017-09-10T18:01:12.147Z,98701.13
2017-09-10T18:03:38.537Z,98701.46
2017-09-10T18:06:04.841Z,98710.81
2017-09-10T18:08:31.458Z,98714.41
2017-09-10T18:10:57.699Z,98725.84
2017-09-10T18:13:24.899Z,98723.77
2017-09-10T18:15:51.673Z,98725.95
2017-09-10T18:18:17.828Z,98726.53
2017-09-10T18:20:44.245Z,98723.98
2017-09-10T18:23:10.680Z,98728.17
2017-09-10T18:25:37.958Z,98723.09
2017-09-10T18:28:04.260Z,98716.92
2017-09-10T18:30:31.104Z,98718.08
2017-09-10T18:32:59.243Z,98729.88
2017-09-10T18:35:25.714Z,98735.41
2017-09-10T18:37:52.555Z,98733.72
2017-09-10T18:40:18.896Z,98736.47
2017-09-10T18:42:54.242Z,98743.45
2017-09-10T18:45:20.586Z,98736.78
2017-09-10T18:47:51.322Z,98744.02
2017-09-10T18:50:23.491Z,98747.05
2017-09-10T18:53:01.034Z,98749.06
2017-09-10T18:55:28.512Z,98756.75
2017-09-10T18:57:54.956Z,98754.21
2017-09-10T19:00:21.806Z,98758.40
2017-09-10T19:02:51.924Z,98758.37
2017-09-10T19:05:19.916Z,98758.42
2017-09-10T19:07:47.379Z,98754.23
2017-09-10T19:10:14.396Z,98757.16
2017-09-10T19:12:41.353Z,98757.06
2017-09-10T19:15:08.400Z,98751.20
2017-09-10T19:17:38.841Z,98747.80
2017-09-10T19:20:06.190Z,98746.81
2017-09-10T19:22:32.950Z,98745.23
2017-09-10T19:24:59.991Z,98747.27
2017-09-10T19:27:28.469Z,98752.94
2017-09-10T19:29:55.311Z,98757.91
2017-09-10T19:32:22.345Z,98759.44
2017-09-10T19:34:48.681Z,98757.84
2017-09-10T19:37:15.529Z,98760.17
2017-09-10T19:39:42.169Z,98762.00
2017-09-10T19:42:08.932Z,98767.35
2017-09-10T19:44:35.554Z,98768.38
2017-09-10T19:47:03.231Z,98773.66
2017-09-10T19:49:29.590Z,98766.39
2017-09-10T19:51:57.932Z,98760.88
2017-09-10T19:54:36.439Z,98756.19
2017-09-10T19:59:41.369Z,98744.30
2017-09-10T20:02:07.604Z,98741.19
2017-09-10T20:07:12.599Z,98751.03
2017-09-10T20:09:44.461Z,98744.57
2017-09-10T20:14:52.664Z,98751.73
2017-09-10T20:17:20.734Z,98754.27
2017-09-10T20:19:47.163Z,98759.30
2017-09-10T20:22:15.757Z,98764.77
2017-09-10T20:24:44.551Z,98768.73
2017-09-10T20:27:10.744Z,98760.84
2017-09-10T20:29:42.538Z,98765.45
2017-09-10T20:32:09.184Z,98765.45
2017-09-10T20:34:35.503Z,98765.45
2017-09-10T20:37:06.037Z,98764.27
2017-09-10T20:39:41.902Z,98766.08
2017-09-10T20:42:10.876Z,98766.90
2017-09-10T20:44:41.537Z,98767.32
2017-09-10T20:47:07.919Z,98768.29
2017-09-10T20:49:38.495Z,98767.70
2017-09-10T20:57:25.464Z,98772.45
2017-09-10T20:59:52.900Z,98768.05
2017-09-10T21:02:19.943Z,98768.92
2017-09-10T21:18:01.718Z,98788.05
2017-09-10T21:20:39.049Z,98792.38
2017-09-10T21:23:07.509Z,98793.42
2017-09-10T21:25:34.570Z,98796.03
2017-09-10T21:28:02.324Z,98790.68
2017-09-10T21:30:28.644Z,98787.23
2017-09-10T21:32:58.574Z,98791.43
2017-09-10T21:35:26.871Z,98795.73
2017-09-10T21:38:04.234Z,98798.27
2017-09-10T21:40:33.044Z,98802.04
2017-09-10T21:43:03.150Z,98797.48
2017-09-10T21:45:31.829Z,98808.06
2017-09-10T21:48:00.206Z,98801.59
2017-09-10T21:50:29.313Z,98805.50
2017-09-10T21:52:56.676Z,98804.81
2017-09-10T21:55:34.964Z,98811.48
2017-09-10T21:58:03.776Z,98820.92
2017-09-10T22:00:30.813Z,98818.92
2017-09-10T22:02:58.397Z,98812.14
2017-09-10T22:08:03.536Z,98807.90
2017-09-10T22:13:09.337Z,98811.03
2017-09-10T22:15:39.455Z,98804.85
2017-09-10T22:18:06.172Z,98807.99
2017-09-10T22:20:38.045Z,98806.61
2017-09-10T22:23:04.278Z,98809.27
2017-09-10T22:25:31.000Z,98804.16
2017-09-10T22:27:57.655Z,98800.17
2017-09-10T22:30:24.789Z,98803.24
2017-09-10T22:32:51.849Z,98801.28
2017-09-10T22:37:59.774Z,98801.64
2017-09-10T22:40:27.948Z,98802.48
2017-09-10T22:42:55.201Z,98797.91
2017-09-10T22:45:23.275Z,98790.09
2017-09-10T22:47:52.055Z,98799.81
2017-09-10T22:53:04.189Z,98799.39
2017-09-10T22:55:31.639Z,98789.18
2017-09-10T23:00:49.079Z,98789.86
2017-09-10T23:16:39.872Z,98772.63
2017-09-10T23:19:09.691Z,98774.25
2017-09-10T23:21:49.042Z,98774.44
2017-09-10T23:24:16.483Z,98771.39
2017-09-10T23:26:45.282Z,98769.80
2017-09-10T23:32:01.032Z,98764.83
